sensor_id;sensor_type;location;lat;lon;timestamp;temperature;humidity
34460;DHT22;20704;51.260;22.558;2023-02-08T00:00:12;0.40;99.90
34460;DHT22;20704;51.260;22.558;2023-02-08T00:02:34;0.40;99.90
34460;DHT22;20704;51.260;22.558;2023-02-08T00:04:36;0.40;99.90
34460;DHT22;20704;51.260;22.558;2023-02-08T00:06:39;0.40;99.90
34460;DHT22;20704;51.260;22.558;2023-02-08T00:08:42;0.30;99.90
34460;DHT22;20704;51.260;22.558;2023-02-08T00:10:44;0.30;99.90
34460;DHT22;20704;51.260;22.558;2023-02-08T00:12:46;0.70;99.90
34460;DHT22;20704;51.260;22.558;2023-02-08T00:14:49;0.30;99.90
34460;DHT22;20704;51.260;22.558;2023-02-08T00:16:51;0.30;99.90
34460;DHT22;20704;51.260;22.558;2023-02-08T00:18:55;0.30;99.90
34460;DHT22;20704;51.260;22.558;2023-02-08T00:20:57;0.30;99.90
34460;DHT22;20704;51.260;22.558;2023-02-08T00:22:59;0.30;99.90
34460;DHT22;20704;51.260;22.558;2023-02-08T00:25:01;0.30;99.90
34460;DHT22;20704;51.260;22.558;2023-02-08T00:27:04;0.30;99.90
34460;DHT22;20704;51.260;22.558;2023-02-08T00:29:06;0.30;99.90
34460;DHT22;20704;51.260;22.558;2023-02-08T00:31:08;0.20;99.90
34460;DHT22;20704;51.260;22.558;2023-02-08T00:33:11;0.20;99.90
34460;DHT22;20704;51.260;22.558;2023-02-08T00:35:14;0.10;99.90
34460;DHT22;20704;51.260;22.558;2023-02-08T00:37:16;0.10;99.90
34460;DHT22;20704;51.260;22.558;2023-02-08T00:39:18;0.10;99.90
34460;DHT22;20704;51.260;22.558;2023-02-08T00:41:22;0.20;99.90
34460;DHT22;20704;51.260;22.558;2023-02-08T00:43:24;0.20;99.90
34460;DHT22;20704;51.260;22.558;2023-02-08T00:45:26;0.20;99.90
34460;DHT22;20704;51.260;22.558;2023-02-08T00:47:29;0.10;99.90
34460;DHT22;20704;51.260;22.558;2023-02-08T00:49:31;0.10;99.90
34460;DHT22;20704;51.260;22.558;2023-02-08T00:51:33;0.70;99.90
34460;DHT22;20704;51.260;22.558;2023-02-08T00:53:37;0.10;99.90
34460;DHT22;20704;51.260;22.558;2023-02-08T00:55:40;0.10;99.90
34460;DHT22;20704;51.260;22.558;2023-02-08T00:57:42;0.10;99.90
34460;DHT22;20704;51.260;22.558;2023-02-08T00:59:45;0.10;99.90
34460;DHT22;20704;51.260;22.558;2023-02-08T01:01:47;0.10;99.90
34460;DHT22;20704;51.260;22.558;2023-02-08T01:03:50;0.10;99.90
34460;DHT22;20704;51.260;22.558;2023-02-08T01:05:52;0.10;99.90
34460;DHT22;20704;51.260;22.558;2023-02-08T01:07:55;0.00;99.90
34460;DHT22;20704;51.260;22.558;2023-02-08T01:09:57;0.00;99.90
34460;DHT22;20704;51.260;22.558;2023-02-08T01:12:01;-0.10;99.90
34460;DHT22;20704;51.260;22.558;2023-02-08T01:14:03;0.20;99.90
34460;DHT22;20704;51.260;22.558;2023-02-08T01:16:09;-0.30;99.90
34460;DHT22;20704;51.260;22.558;2023-02-08T01:18:11;-0.30;99.90
34460;DHT22;20704;51.260;22.558;2023-02-08T01:20:13;-0.30;99.90
34460;DHT22;20704;51.260;22.558;2023-02-08T01:22:16;-0.30;99.90
34460;DHT22;20704;51.260;22.558;2023-02-08T01:24:18;-0.20;99.90
34460;DHT22;20704;51.260;22.558;2023-02-08T01:26:21;-0.20;99.90
34460;DHT22;20704;51.260;22.558;2023-02-08T01:28:24;-0.20;99.90
34460;DHT22;20704;51.260;22.558;2023-02-08T01:30:26;-0.30;99.90
34460;DHT22;20704;51.260;22.558;2023-02-08T01:32:29;-0.20;99.90
34460;DHT22;20704;51.260;22.558;2023-02-08T01:34:31;-0.20;99.90
34460;DHT22;20704;51.260;22.558;2023-02-08T01:36:34;-0.20;99.90
34460;DHT22;20704;51.260;22.558;2023-02-08T01:38:37;-0.10;99.90
34460;DHT22;20704;51.260;22.558;2023-02-08T01:40:39;-0.20;99.90
34460;DHT22;20704;51.260;22.558;2023-02-08T01:42:42;-0.10;99.90
34460;DHT22;20704;51.260;22.558;2023-02-08T01:47:21;-0.20;99.90
34460;DHT22;20704;51.260;22.558;2023-02-08T01:49:30;-0.20;99.90
34460;DHT22;20704;51.260;22.558;2023-02-08T01:51:38;-0.20;99.90
34460;DHT22;20704;51.260;22.558;2023-02-08T01:53:41;-0.30;99.90
34460;DHT22;20704;51.260;22.558;2023-02-08T01:55:47;-0.40;99.90
34460;DHT22;20704;51.260;22.558;2023-02-08T01:57:55;-0.30;99.90
34460;DHT22;20704;51.260;22.558;2023-02-08T02:00:16;0.60;99.90
34460;DHT22;20704;51.260;22.558;2023-02-08T02:02:20;-0.30;99.90
34460;DHT22;20704;51.260;22.558;2023-02-08T02:04:24;-0.30;99.90
34460;DHT22;20704;51.260;22.558;2023-02-08T02:06:32;-0.30;99.90
34460;DHT22;20704;51.260;22.558;2023-02-08T02:08:35;-0.40;99.90
34460;DHT22;20704;51.260;22.558;2023-02-08T02:10:39;-0.40;99.90
34460;DHT22;20704;51.260;22.558;2023-02-08T02:12:43;-0.30;99.90
34460;DHT22;20704;51.260;22.558;2023-02-08T02:14:46;-0.30;99.90
34460;DHT22;20704;51.260;22.558;2023-02-08T02:16:49;-0.20;99.90
34460;DHT22;20704;51.260;22.558;2023-02-08T02:18:51;-0.20;99.90
34460;DHT22;20704;51.260;22.558;2023-02-08T02:27:46;-0.10;99.90
34460;DHT22;20704;51.260;22.558;2023-02-08T02:34:55;-0.10;99.90
34460;DHT22;20704;51.260;22.558;2023-02-08T02:41:29;0.60;99.90
34460;DHT22;20704;51.260;22.558;2023-02-08T02:43:56;-0.10;99.90
34460;DHT22;20704;51.260;22.558;2023-02-08T02:48:39;0.00;99.90
34460;DHT22;20704;51.260;22.558;2023-02-08T02:51:07;0.00;99.90
34460;DHT22;20704;51.260;22.558;2023-02-08T02:55:22;-0.20;99.90
34460;DHT22;20704;51.260;22.558;2023-02-08T02:57:27;-0.20;99.90
34460;DHT22;20704;51.260;22.558;2023-02-08T02:59:36;0.40;99.90
34460;DHT22;20704;51.260;22.558;2023-02-08T03:01:41;-0.10;99.90
34460;DHT22;20704;51.260;22.558;2023-02-08T03:03:44;0.00;99.90
34460;DHT22;20704;51.260;22.558;2023-02-08T03:05:47;0.00;99.90
34460;DHT22;20704;51.260;22.558;2023-02-08T03:10:09;0.00;99.90
34460;DHT22;20704;51.260;22.558;2023-02-08T03:19:37;0.00;99.90
34460;DHT22;20704;51.260;22.558;2023-02-08T03:21:47;-0.10;99.90
34460;DHT22;20704;51.260;22.558;2023-02-08T03:26:19;0.00;99.90
34460;DHT22;20704;51.260;22.558;2023-02-08T03:28:32;0.00;99.90
34460;DHT22;20704;51.260;22.558;2023-02-08T03:30:46;-0.10;99.90
34460;DHT22;20704;51.260;22.558;2023-02-08T03:33:01;-0.10;99.90
34460;DHT22;20704;51.260;22.558;2023-02-08T03:35:33;-0.10;99.90
34460;DHT22;20704;51.260;22.558;2023-02-08T03:37:47;-0.10;99.90
34460;DHT22;20704;51.260;22.558;2023-02-08T03:39:54;-0.20;99.90
34460;DHT22;20704;51.260;22.558;2023-02-08T03:42:02;-0.20;99.90
34460;DHT22;20704;51.260;22.558;2023-02-08T03:44:09;-0.20;99.90
34460;DHT22;20704;51.260;22.558;2023-02-08T03:46:27;0.60;99.90
34460;DHT22;20704;51.260;22.558;2023-02-08T03:48:30;-0.20;99.90
34460;DHT22;20704;51.260;22.558;2023-02-08T03:50:36;-0.20;99.90
34460;DHT22;20704;51.260;22.558;2023-02-08T03:52:40;-0.20;99.90
34460;DHT22;20704;51.260;22.558;2023-02-08T03:54:53;-0.20;99.90
34460;DHT22;20704;51.260;22.558;2023-02-08T03:59:22;-0.20;99.90
34460;DHT22;20704;51.260;22.558;2023-02-08T04:01:34;-0.30;99.90
34460;DHT22;20704;51.260;22.558;2023-02-08T04:03:39;-0.30;99.90
34460;DHT22;20704;51.260;22.558;2023-02-08T04:05:42;-0.20;99.90
34460;DHT22;20704;51.260;22.558;2023-02-08T04:07:45;-0.30;99.90
34460;DHT22;20704;51.260;22.558;2023-02-08T04:09:47;-0.20;99.90
34460;DHT22;20704;51.260;22.558;2023-02-08T04:11:49;-0.30;99.90
34460;DHT22;20704;51.260;22.558;2023-02-08T04:13:52;-0.30;99.90
34460;DHT22;20704;51.260;22.558;2023-02-08T04:15:54;-0.40;99.90
34460;DHT22;20704;51.260;22.558;2023-02-08T04:17:56;-0.40;99.90
34460;DHT22;20704;51.260;22.558;2023-02-08T04:19:59;0.20;99.90
34460;DHT22;20704;51.260;22.558;2023-02-08T04:22:01;-0.40;99.90
34460;DHT22;20704;51.260;22.558;2023-02-08T04:24:04;-0.50;99.90
34460;DHT22;20704;51.260;22.558;2023-02-08T04:26:06;-0.40;99.90
34460;DHT22;20704;51.260;22.558;2023-02-08T04:28:10;-0.40;99.90
34460;DHT22;20704;51.260;22.558;2023-02-08T04:30:12;-0.20;99.90
34460;DHT22;20704;51.260;22.558;2023-02-08T04:32:14;-0.30;99.90
34460;DHT22;20704;51.260;22.558;2023-02-08T04:34:17;-0.30;99.90
34460;DHT22;20704;51.260;22.558;2023-02-08T04:36:19;-0.30;99.90
34460;DHT22;20704;51.260;22.558;2023-02-08T04:38:21;-0.20;99.90
34460;DHT22;20704;51.260;22.558;2023-02-08T04:40:24;-0.30;99.90
34460;DHT22;20704;51.260;22.558;2023-02-08T04:42:26;-0.10;99.90
34460;DHT22;20704;51.260;22.558;2023-02-08T04:44:28;-0.30;99.90
34460;DHT22;20704;51.260;22.558;2023-02-08T04:46:33;-0.30;99.90
34460;DHT22;20704;51.260;22.558;2023-02-08T04:48:36;-0.30;99.90
34460;DHT22;20704;51.260;22.558;2023-02-08T04:50:38;-0.30;99.90
34460;DHT22;20704;51.260;22.558;2023-02-08T04:52:41;-0.30;99.90
34460;DHT22;20704;51.260;22.558;2023-02-08T04:54:44;-0.30;99.90
34460;DHT22;20704;51.260;22.558;2023-02-08T04:56:47;-0.30;99.90
34460;DHT22;20704;51.260;22.558;2023-02-08T04:58:49;-0.40;99.90
34460;DHT22;20704;51.260;22.558;2023-02-08T05:00:51;-0.40;99.90
34460;DHT22;20704;51.260;22.558;2023-02-08T05:02:54;-0.50;99.90
34460;DHT22;20704;51.260;22.558;2023-02-08T05:04:58;-0.50;99.90
34460;DHT22;20704;51.260;22.558;2023-02-08T05:07:00;-0.70;99.90
34460;DHT22;20704;51.260;22.558;2023-02-08T05:09:06;-0.70;99.90
34460;DHT22;20704;51.260;22.558;2023-02-08T05:11:09;-0.50;99.90
34460;DHT22;20704;51.260;22.558;2023-02-08T05:13:11;-0.80;99.90
34460;DHT22;20704;51.260;22.558;2023-02-08T05:15:13;-0.80;99.90
34460;DHT22;20704;51.260;22.558;2023-02-08T05:17:16;-0.80;99.90
34460;DHT22;20704;51.260;22.558;2023-02-08T05:19:18;-0.80;99.90
34460;DHT22;20704;51.260;22.558;2023-02-08T05:21:20;-0.90;99.90
34460;DHT22;20704;51.260;22.558;2023-02-08T05:23:25;-0.80;99.90
34460;DHT22;20704;51.260;22.558;2023-02-08T05:25:27;-0.90;99.90
34460;DHT22;20704;51.260;22.558;2023-02-08T05:27:30;-0.90;99.90
34460;DHT22;20704;51.260;22.558;2023-02-08T05:29:32;-0.90;99.90
34460;DHT22;20704;51.260;22.558;2023-02-08T05:31:35;-0.90;99.90
34460;DHT22;20704;51.260;22.558;2023-02-08T05:33:37;-0.60;99.90
34460;DHT22;20704;51.260;22.558;2023-02-08T05:35:40;-1.00;99.90
34460;DHT22;20704;51.260;22.558;2023-02-08T05:37:42;-1.00;99.90
34460;DHT22;20704;51.260;22.558;2023-02-08T05:39:44;-1.00;99.90
34460;DHT22;20704;51.260;22.558;2023-02-08T05:41:47;-1.00;99.90
34460;DHT22;20704;51.260;22.558;2023-02-08T05:43:49;-1.00;99.90
34460;DHT22;20704;51.260;22.558;2023-02-08T05:45:52;-1.00;99.90
34460;DHT22;20704;51.260;22.558;2023-02-08T05:47:54;-1.00;99.90
34460;DHT22;20704;51.260;22.558;2023-02-08T05:49:59;-1.00;99.90
34460;DHT22;20704;51.260;22.558;2023-02-08T05:52:01;-1.00;99.90
34460;DHT22;20704;51.260;22.558;2023-02-08T05:54:04;-1.00;99.90
34460;DHT22;20704;51.260;22.558;2023-02-08T05:56:06;-1.10;99.90
34460;DHT22;20704;51.260;22.558;2023-02-08T05:58:09;-1.10;99.90
34460;DHT22;20704;51.260;22.558;2023-02-08T06:00:11;-1.00;99.90
34460;DHT22;20704;51.260;22.558;2023-02-08T06:02:14;-1.20;99.90
34460;DHT22;20704;51.260;22.558;2023-02-08T06:04:16;-1.20;99.90
34460;DHT22;20704;51.260;22.558;2023-02-08T06:06:20;-1.30;99.90
34460;DHT22;20704;51.260;22.558;2023-02-08T06:08:22;-1.20;99.90
34460;DHT22;20704;51.260;22.558;2023-02-08T06:10:24;-1.30;99.90
34460;DHT22;20704;51.260;22.558;2023-02-08T06:12:27;-1.30;99.90
34460;DHT22;20704;51.260;22.558;2023-02-08T06:14:29;-1.20;99.90
34460;DHT22;20704;51.260;22.558;2023-02-08T06:16:31;-1.20;99.90
34460;DHT22;20704;51.260;22.558;2023-02-08T06:18:34;-1.30;99.90
34460;DHT22;20704;51.260;22.558;2023-02-08T06:20:36;-1.30;99.90
34460;DHT22;20704;51.260;22.558;2023-02-08T06:22:39;-0.80;99.90
34460;DHT22;20704;51.260;22.558;2023-02-08T06:24:41;-1.30;99.90
34460;DHT22;20704;51.260;22.558;2023-02-08T06:26:44;-1.30;99.90
34460;DHT22;20704;51.260;22.558;2023-02-08T06:28:46;-1.20;99.90
34460;DHT22;20704;51.260;22.558;2023-02-08T06:30:49;-1.20;99.90
34460;DHT22;20704;51.260;22.558;2023-02-08T06:32:51;-1.20;99.90
34460;DHT22;20704;51.260;22.558;2023-02-08T06:34:55;-1.20;99.90
34460;DHT22;20704;51.260;22.558;2023-02-08T06:36:57;-1.10;99.90
34460;DHT22;20704;51.260;22.558;2023-02-08T06:39:04;-0.50;99.90
34460;DHT22;20704;51.260;22.558;2023-02-08T06:41:06;-0.80;99.90
34460;DHT22;20704;51.260;22.558;2023-02-08T06:43:09;-0.10;99.90
34460;DHT22;20704;51.260;22.558;2023-02-08T06:45:11;1.40;99.90
34460;DHT22;20704;51.260;22.558;2023-02-08T06:47:15;2.50;96.80
34460;DHT22;20704;51.260;22.558;2023-02-08T06:49:18;2.90;92.90
34460;DHT22;20704;51.260;22.558;2023-02-08T06:51:20;5.30;93.10
34460;DHT22;20704;51.260;22.558;2023-02-08T06:53:24;7.20;82.80
34460;DHT22;20704;51.260;22.558;2023-02-08T06:55:26;7.70;69.60
34460;DHT22;20704;51.260;22.558;2023-02-08T06:57:29;8.50;66.40
34460;DHT22;20704;51.260;22.558;2023-02-08T06:59:31;9.70;63.60
34460;DHT22;20704;51.260;22.558;2023-02-08T07:01:34;9.70;60.60
34460;DHT22;20704;51.260;22.558;2023-02-08T07:03:36;8.90;59.40
34460;DHT22;20704;51.260;22.558;2023-02-08T07:05:39;9.80;59.60
34460;DHT22;20704;51.260;22.558;2023-02-08T07:07:50;10.10;56.50
34460;DHT22;20704;51.260;22.558;2023-02-08T07:09:52;11.00;56.10
34460;DHT22;20704;51.260;22.558;2023-02-08T07:11:55;12.50;54.80
34460;DHT22;20704;51.260;22.558;2023-02-08T07:13:57;11.90;51.10
34460;DHT22;20704;51.260;22.558;2023-02-08T07:16:00;12.40;50.10
34460;DHT22;20704;51.260;22.558;2023-02-08T07:18:02;13.10;50.80
34460;DHT22;20704;51.260;22.558;2023-02-08T07:20:05;13.70;47.70
34460;DHT22;20704;51.260;22.558;2023-02-08T07:22:07;13.30;46.40
34460;DHT22;20704;51.260;22.558;2023-02-08T07:24:09;13.20;46.50
34460;DHT22;20704;51.260;22.558;2023-02-08T07:26:12;13.30;46.30
34460;DHT22;20704;51.260;22.558;2023-02-08T07:28:15;14.00;46.30
34460;DHT22;20704;51.260;22.558;2023-02-08T07:30:18;13.30;44.70
34460;DHT22;20704;51.260;22.558;2023-02-08T07:32:20;14.40;44.40
34460;DHT22;20704;51.260;22.558;2023-02-08T07:34:22;15.30;44.70
34460;DHT22;20704;51.260;22.558;2023-02-08T07:36:25;14.70;43.50
34460;DHT22;20704;51.260;22.558;2023-02-08T07:38:27;15.70;42.40
34460;DHT22;20704;51.260;22.558;2023-02-08T07:40:30;15.70;42.30
34460;DHT22;20704;51.260;22.558;2023-02-08T07:42:32;16.50;41.30
34460;DHT22;20704;51.260;22.558;2023-02-08T07:44:37;16.90;39.40
34460;DHT22;20704;51.260;22.558;2023-02-08T07:46:39;16.50;39.60
34460;DHT22;20704;51.260;22.558;2023-02-08T07:48:42;17.00;41.30
34460;DHT22;20704;51.260;22.558;2023-02-08T07:50:44;18.30;39.20
34460;DHT22;20704;51.260;22.558;2023-02-08T07:52:47;18.00;38.00
34460;DHT22;20704;51.260;22.558;2023-02-08T07:54:49;17.60;38.10
34460;DHT22;20704;51.260;22.558;2023-02-08T07:56:51;16.90;37.60
34460;DHT22;20704;51.260;22.558;2023-02-08T07:58:54;15.90;38.90
34460;DHT22;20704;51.260;22.558;2023-02-08T08:00:57;14.80;39.40
34460;DHT22;20704;51.260;22.558;2023-02-08T08:03:03;15.50;39.20
34460;DHT22;20704;51.260;22.558;2023-02-08T08:05:07;16.80;39.10
34460;DHT22;20704;51.260;22.558;2023-02-08T08:07:09;16.70;39.00
34460;DHT22;20704;51.260;22.558;2023-02-08T08:09:12;16.70;37.30
34460;DHT22;20704;51.260;22.558;2023-02-08T08:11:17;15.60;99.90
34460;DHT22;20704;51.260;22.558;2023-02-08T08:13:20;15.00;99.90
34460;DHT22;20704;51.260;22.558;2023-02-08T08:15:22;15.10;99.90
34460;DHT22;20704;51.260;22.558;2023-02-08T08:17:24;15.10;99.90
34460;DHT22;20704;51.260;22.558;2023-02-08T08:19:30;12.90;99.90
34460;DHT22;20704;51.260;22.558;2023-02-08T08:21:33;11.30;99.90
34460;DHT22;20704;51.260;22.558;2023-02-08T08:23:36;11.60;99.90
34460;DHT22;20704;51.260;22.558;2023-02-08T08:25:38;9.70;1.00
34460;DHT22;20704;51.260;22.558;2023-02-08T08:27:40;8.90;51.80
34460;DHT22;20704;51.260;22.558;2023-02-08T08:29:43;9.30;52.50
34460;DHT22;20704;51.260;22.558;2023-02-08T08:31:45;8.70;52.60
34460;DHT22;20704;51.260;22.558;2023-02-08T08:33:48;8.60;53.70
34460;DHT22;20704;51.260;22.558;2023-02-08T08:35:51;8.20;53.90
34460;DHT22;20704;51.260;22.558;2023-02-08T08:37:53;7.10;55.20
34460;DHT22;20704;51.260;22.558;2023-02-08T08:39:55;7.00;56.50
34460;DHT22;20704;51.260;22.558;2023-02-08T08:41:59;6.20;57.30
34460;DHT22;20704;51.260;22.558;2023-02-08T08:44:02;6.30;58.10
34460;DHT22;20704;51.260;22.558;2023-02-08T08:46:05;6.30;59.40
34460;DHT22;20704;51.260;22.558;2023-02-08T08:48:08;6.40;60.00
34460;DHT22;20704;51.260;22.558;2023-02-08T08:50:10;6.10;59.10
34460;DHT22;20704;51.260;22.558;2023-02-08T08:52:12;5.70;59.70
34460;DHT22;20704;51.260;22.558;2023-02-08T08:54:15;6.30;60.00
34460;DHT22;20704;51.260;22.558;2023-02-08T08:56:17;6.10;60.00
34460;DHT22;20704;51.260;22.558;2023-02-08T08:58:20;6.90;59.70
34460;DHT22;20704;51.260;22.558;2023-02-08T09:00:22;6.40;59.30
34460;DHT22;20704;51.260;22.558;2023-02-08T09:02:25;6.30;58.70
34460;DHT22;20704;51.260;22.558;2023-02-08T09:04:27;6.00;59.20
34460;DHT22;20704;51.260;22.558;2023-02-08T09:06:30;6.50;59.50
34460;DHT22;20704;51.260;22.558;2023-02-08T09:08:32;6.00;59.60
34460;DHT22;20704;51.260;22.558;2023-02-08T09:10:35;6.70;59.80
34460;DHT22;20704;51.260;22.558;2023-02-08T09:12:37;6.90;58.80
34460;DHT22;20704;51.260;22.558;2023-02-08T09:14:40;6.20;59.10
34460;DHT22;20704;51.260;22.558;2023-02-08T09:16:44;5.90;60.30
34460;DHT22;20704;51.260;22.558;2023-02-08T09:18:49;5.70;60.80
34460;DHT22;20704;51.260;22.558;2023-02-08T09:20:51;5.20;61.20
34460;DHT22;20704;51.260;22.558;2023-02-08T09:22:54;5.00;62.20
34460;DHT22;20704;51.260;22.558;2023-02-08T09:24:56;4.60;62.80
34460;DHT22;20704;51.260;22.558;2023-02-08T09:26:59;4.30;63.80
34460;DHT22;20704;51.260;22.558;2023-02-08T09:29:01;4.50;64.30
34460;DHT22;20704;51.260;22.558;2023-02-08T09:31:09;4.10;64.70
34460;DHT22;20704;51.260;22.558;2023-02-08T09:33:12;4.20;65.20
34460;DHT22;20704;51.260;22.558;2023-02-08T09:35:14;4.20;65.10
34460;DHT22;20704;51.260;22.558;2023-02-08T09:37:17;4.20;65.60
34460;DHT22;20704;51.260;22.558;2023-02-08T09:39:23;2.70;68.50
34460;DHT22;20704;51.260;22.558;2023-02-08T09:44:09;3.10;67.90
34460;DHT22;20704;51.260;22.558;2023-02-08T09:46:22;3.40;70.80
34460;DHT22;20704;51.260;22.558;2023-02-08T09:48:30;3.30;72.30
34460;DHT22;20704;51.260;22.558;2023-02-08T09:54:58;4.60;92.40
34460;DHT22;20704;51.260;22.558;2023-02-08T09:57:08;3.90;68.30
34460;DHT22;20704;51.260;22.558;2023-02-08T09:59:25;3.80;69.70
34460;DHT22;20704;51.260;22.558;2023-02-08T10:01:33;5.10;70.00
34460;DHT22;20704;51.260;22.558;2023-02-08T10:03:41;4.30;69.20
34460;DHT22;20704;51.260;22.558;2023-02-08T10:05:46;4.00;69.80
34460;DHT22;20704;51.260;22.558;2023-02-08T10:07:49;4.00;72.30
34460;DHT22;20704;51.260;22.558;2023-02-08T10:10:03;4.50;65.10
34460;DHT22;20704;51.260;22.558;2023-02-08T10:12:19;4.80;70.00
34460;DHT22;20704;51.260;22.558;2023-02-08T10:29:20;6.00;66.30
34460;DHT22;20704;51.260;22.558;2023-02-08T10:33:01;4.80;71.50
34460;DHT22;20704;51.260;22.558;2023-02-08T10:47:57;5.30;63.20
34460;DHT22;20704;51.260;22.558;2023-02-08T10:56:50;5.30;62.50
34460;DHT22;20704;51.260;22.558;2023-02-08T11:35:25;2.90;76.10
34460;DHT22;20704;51.260;22.558;2023-02-08T11:41:45;6.70;74.10
34460;DHT22;20704;51.260;22.558;2023-02-08T11:45:58;1.70;71.30
34460;DHT22;20704;51.260;22.558;2023-02-08T11:48:01;2.30;72.30
34460;DHT22;20704;51.260;22.558;2023-02-08T11:50:07;2.00;72.10
34460;DHT22;20704;51.260;22.558;2023-02-08T11:57:00;1.80;72.90
34460;DHT22;20704;51.260;22.558;2023-02-08T12:01:19;1.50;81.50
34460;DHT22;20704;51.260;22.558;2023-02-08T12:03:27;1.50;74.60
34460;DHT22;20704;51.260;22.558;2023-02-08T12:06:01;1.50;75.00
34460;DHT22;20704;51.260;22.558;2023-02-08T12:08:36;1.50;75.50
34460;DHT22;20704;51.260;22.558;2023-02-08T12:11:14;1.40;86.00
34460;DHT22;20704;51.260;22.558;2023-02-08T12:13:30;1.40;76.00
34460;DHT22;20704;51.260;22.558;2023-02-08T12:20:43;1.10;78.40
34460;DHT22;20704;51.260;22.558;2023-02-08T12:25:27;0.90;89.60
34460;DHT22;20704;51.260;22.558;2023-02-08T12:38:46;0.80;77.70
34460;DHT22;20704;51.260;22.558;2023-02-08T12:54:53;0.70;79.10
34460;DHT22;20704;51.260;22.558;2023-02-08T12:56:58;0.50;80.70
34460;DHT22;20704;51.260;22.558;2023-02-08T12:59:04;0.80;85.40
34460;DHT22;20704;51.260;22.558;2023-02-08T13:01:34;0.40;82.80
34460;DHT22;20704;51.260;22.558;2023-02-08T13:03:49;0.00;93.30
34460;DHT22;20704;51.260;22.558;2023-02-08T13:05:53;0.30;85.70
34460;DHT22;20704;51.260;22.558;2023-02-08T13:08:35;0.40;87.00
34460;DHT22;20704;51.260;22.558;2023-02-08T13:10:42;0.20;87.90
34460;DHT22;20704;51.260;22.558;2023-02-08T13:12:49;0.20;87.10
34460;DHT22;20704;51.260;22.558;2023-02-08T13:15:09;0.20;88.40
34460;DHT22;20704;51.260;22.558;2023-02-08T13:17:44;0.20;93.00
34460;DHT22;20704;51.260;22.558;2023-02-08T13:19:52;0.40;88.50
34460;DHT22;20704;51.260;22.558;2023-02-08T13:22:02;0.30;89.20
34460;DHT22;20704;51.260;22.558;2023-02-08T13:24:55;0.30;89.40
34460;DHT22;20704;51.260;22.558;2023-02-08T13:26:34;0.30;90.00
34460;DHT22;20704;51.260;22.558;2023-02-08T13:28:39;0.10;89.80
34460;DHT22;20704;51.260;22.558;2023-02-08T13:30:42;0.00;90.90
34460;DHT22;20704;51.260;22.558;2023-02-08T13:32:46;-0.10;90.60
34460;DHT22;20704;51.260;22.558;2023-02-08T13:34:54;-0.20;96.30
34460;DHT22;20704;51.260;22.558;2023-02-08T13:37:04;0.00;92.10
34460;DHT22;20704;51.260;22.558;2023-02-08T13:41:38;0.80;92.70
34460;DHT22;20704;51.260;22.558;2023-02-08T13:44:00;-0.20;93.10
34460;DHT22;20704;51.260;22.558;2023-02-08T13:46:04;-0.20;93.80
34460;DHT22;20704;51.260;22.558;2023-02-08T13:48:10;-0.20;97.00
34460;DHT22;20704;51.260;22.558;2023-02-08T13:57:52;-0.40;94.90
34460;DHT22;20704;51.260;22.558;2023-02-08T14:00:24;-0.50;94.80
34460;DHT22;20704;51.260;22.558;2023-02-08T14:02:27;-0.40;95.80
34460;DHT22;20704;51.260;22.558;2023-02-08T14:04:33;0.20;99.90
34460;DHT22;20704;51.260;22.558;2023-02-08T14:06:47;-0.20;99.40
34460;DHT22;20704;51.260;22.558;2023-02-08T14:18:25;-0.40;96.20
34460;DHT22;20704;51.260;22.558;2023-02-08T14:20:32;-0.70;99.90
34460;DHT22;20704;51.260;22.558;2023-02-08T14:22:39;-0.40;99.90
34460;DHT22;20704;51.260;22.558;2023-02-08T14:26:50;-0.60;99.90
34460;DHT22;20704;51.260;22.558;2023-02-08T14:28:55;-0.40;95.00
34460;DHT22;20704;51.260;22.558;2023-02-08T14:31:01;-0.50;99.90
34460;DHT22;20704;51.260;22.558;2023-02-08T14:35:16;-0.20;99.90
34460;DHT22;20704;51.260;22.558;2023-02-08T14:37:30;-0.10;93.60
34460;DHT22;20704;51.260;22.558;2023-02-08T14:39:34;-0.30;99.90
34460;DHT22;20704;51.260;22.558;2023-02-08T14:41:55;-0.70;95.60
34460;DHT22;20704;51.260;22.558;2023-02-08T14:48:52;-0.50;95.30
34460;DHT22;20704;51.260;22.558;2023-02-08T14:55:20;-0.50;94.70
34460;DHT22;20704;51.260;22.558;2023-02-08T14:57:35;-0.80;99.90
34460;DHT22;20704;51.260;22.558;2023-02-08T15:03:49;-0.50;95.20
34460;DHT22;20704;51.260;22.558;2023-02-08T15:08:56;-0.60;96.60
34460;DHT22;20704;51.260;22.558;2023-02-08T15:13:04;-0.70;97.40
34460;DHT22;20704;51.260;22.558;2023-02-08T15:17:42;-0.80;98.50
34460;DHT22;20704;51.260;22.558;2023-02-08T15:19:46;-0.70;98.40
34460;DHT22;20704;51.260;22.558;2023-02-08T15:21:48;-1.10;99.90
34460;DHT22;20704;51.260;22.558;2023-02-08T15:26:21;-0.70;97.60
34460;DHT22;20704;51.260;22.558;2023-02-08T15:28:25;-0.70;99.90
34460;DHT22;20704;51.260;22.558;2023-02-08T15:30:36;-0.70;97.00
34460;DHT22;20704;51.260;22.558;2023-02-08T15:32:40;-0.80;99.90
34460;DHT22;20704;51.260;22.558;2023-02-08T15:34:43;-1.30;99.90
34460;DHT22;20704;51.260;22.558;2023-02-08T15:36:54;-1.70;99.70
34460;DHT22;20704;51.260;22.558;2023-02-08T15:39:00;-1.10;99.90
34460;DHT22;20704;51.260;22.558;2023-02-08T15:45:26;-1.30;99.90
34460;DHT22;20704;51.260;22.558;2023-02-08T15:47:35;-1.30;99.90
34460;DHT22;20704;51.260;22.558;2023-02-08T15:49:43;-1.30;99.90
34460;DHT22;20704;51.260;22.558;2023-02-08T15:53:52;-1.30;99.90
34460;DHT22;20704;51.260;22.558;2023-02-08T15:55:59;-1.20;99.90
34460;DHT22;20704;51.260;22.558;2023-02-08T16:00:16;-1.30;99.90
34460;DHT22;20704;51.260;22.558;2023-02-08T16:02:26;-1.20;99.90
34460;DHT22;20704;51.260;22.558;2023-02-08T16:08:58;-1.30;99.90
34460;DHT22;20704;51.260;22.558;2023-02-08T16:11:21;-1.30;99.90
34460;DHT22;20704;51.260;22.558;2023-02-08T16:13:32;-0.20;99.90
34460;DHT22;20704;51.260;22.558;2023-02-08T16:15:42;-1.40;99.90
34460;DHT22;20704;51.260;22.558;2023-02-08T16:17:45;-1.40;99.90
34460;DHT22;20704;51.260;22.558;2023-02-08T16:19:50;-0.80;99.90
34460;DHT22;20704;51.260;22.558;2023-02-08T16:21:55;-1.40;99.90
34460;DHT22;20704;51.260;22.558;2023-02-08T16:24:03;-1.40;99.90
34460;DHT22;20704;51.260;22.558;2023-02-08T16:26:17;-1.40;99.90
34460;DHT22;20704;51.260;22.558;2023-02-08T16:28:27;-1.30;99.90
34460;DHT22;20704;51.260;22.558;2023-02-08T16:30:30;-1.30;99.90
34460;DHT22;20704;51.260;22.558;2023-02-08T16:32:34;-1.30;99.90
34460;DHT22;20704;51.260;22.558;2023-02-08T16:34:38;-1.30;99.90
34460;DHT22;20704;51.260;22.558;2023-02-08T16:36:47;-1.30;99.90
34460;DHT22;20704;51.260;22.558;2023-02-08T16:41:17;-1.40;99.90
34460;DHT22;20704;51.260;22.558;2023-02-08T16:43:30;-1.40;99.90
34460;DHT22;20704;51.260;22.558;2023-02-08T16:51:42;-1.80;99.90
34460;DHT22;20704;51.260;22.558;2023-02-08T16:53:45;-1.80;99.90
34460;DHT22;20704;51.260;22.558;2023-02-08T16:55:48;-1.60;99.90
34460;DHT22;20704;51.260;22.558;2023-02-08T17:01:57;-2.00;99.90